createdAt,value
2023-03-24T00:00:20.476Z,12.21
2023-03-24T00:01:20.414Z,12.29
2023-03-24T00:03:50.935Z,12.21
2023-03-24T00:04:50.904Z,12.20
2023-03-24T00:05:50.880Z,12.34
2023-03-24T00:06:50.862Z,12.39
2023-03-24T00:07:54.580Z,12.31
2023-03-24T00:08:50.841Z,12.30
2023-03-24T00:09:50.840Z,12.38
2023-03-24T00:10:50.829Z,12.29
2023-03-24T00:11:50.815Z,12.31
2023-03-24T00:12:50.801Z,12.34
2023-03-24T00:13:51.088Z,12.33
2023-03-24T00:14:50.778Z,12.30
2023-03-24T00:15:50.793Z,12.31
2023-03-24T00:16:50.755Z,12.21
2023-03-24T00:17:50.808Z,12.30
2023-03-24T00:18:50.753Z,12.23
2023-03-24T00:19:50.726Z,12.27
2023-03-24T00:20:50.724Z,12.33
2023-03-24T00:21:50.717Z,12.34
2023-03-24T00:22:50.718Z,12.33
2023-03-24T00:23:50.684Z,12.41
2023-03-24T00:24:50.676Z,12.49
2023-03-24T00:25:50.675Z,12.48
2023-03-24T00:26:50.669Z,12.39
2023-03-24T00:27:50.644Z,12.34
2023-03-24T00:28:50.639Z,12.37
2023-03-24T00:29:50.629Z,12.42
2023-03-24T00:30:50.623Z,12.30
2023-03-24T00:31:50.611Z,12.33
2023-03-24T00:32:50.596Z,12.27
2023-03-24T00:33:50.618Z,12.30
2023-03-24T00:34:50.576Z,12.44
2023-03-24T00:35:50.627Z,12.26
2023-03-24T00:36:50.555Z,12.27
2023-03-24T00:37:50.548Z,12.26
2023-03-24T00:38:50.559Z,12.19
2023-03-24T00:39:50.553Z,12.20
2023-03-24T00:40:50.553Z,12.31
2023-03-24T00:41:50.510Z,12.30
2023-03-24T00:42:50.529Z,12.29
2023-03-24T00:43:50.492Z,12.23
2023-03-24T00:44:50.485Z,12.30
2023-03-24T00:45:50.475Z,12.31
2023-03-24T00:46:50.520Z,12.33
2023-03-24T00:47:50.590Z,12.27
2023-03-24T00:48:50.435Z,12.38
2023-03-24T00:49:50.438Z,12.33
2023-03-24T00:50:50.425Z,12.39
2023-03-24T00:51:50.412Z,12.44
2023-03-24T00:52:50.394Z,12.41
2023-03-24T00:53:50.388Z,12.31
2023-03-24T00:54:50.376Z,12.30
2023-03-24T00:55:50.381Z,12.34
2023-03-24T00:56:50.384Z,12.30
2023-03-24T00:57:50.509Z,12.31
2023-03-24T00:58:50.333Z,12.41
2023-03-24T00:59:50.327Z,12.30
2023-03-24T01:00:50.378Z,12.33
2023-03-24T01:01:50.315Z,12.39
2023-03-24T01:02:50.319Z,12.30
2023-03-24T01:03:50.278Z,12.23
2023-03-24T01:04:50.264Z,12.21
2023-03-24T01:05:50.272Z,12.38
2023-03-24T01:06:50.241Z,12.27
2023-03-24T01:07:50.234Z,12.24
2023-03-24T01:08:50.247Z,12.29
2023-03-24T01:09:50.262Z,12.29
2023-03-24T01:10:50.295Z,12.30
2023-03-24T01:11:50.197Z,12.29
2023-03-24T01:12:50.183Z,12.27
2023-03-24T01:13:50.175Z,12.27
2023-03-24T01:14:50.163Z,12.20
2023-03-24T01:15:50.162Z,12.21
2023-03-24T01:16:50.162Z,12.23
2023-03-24T01:17:50.182Z,12.23
2023-03-24T01:18:50.114Z,12.30
2023-03-24T01:19:50.110Z,12.21
2023-03-24T01:20:50.091Z,12.15
2023-03-24T01:21:50.093Z,12.24
2023-03-24T01:22:50.081Z,12.19
2023-03-24T01:23:50.061Z,12.23
2023-03-24T01:24:50.060Z,12.29
2023-03-24T01:25:51.169Z,12.24
2023-03-24T01:26:51.164Z,12.13
2023-03-24T01:27:51.155Z,12.29
2023-03-24T01:28:51.152Z,12.24
2023-03-24T01:29:51.133Z,12.15
2023-03-24T01:30:51.109Z,12.20
2023-03-24T01:31:51.157Z,12.21
2023-03-24T01:32:51.099Z,12.16
2023-03-24T01:33:51.082Z,12.30
2023-03-24T01:34:51.071Z,12.19
2023-03-24T01:35:51.067Z,12.09
2023-03-24T01:36:51.060Z,12.16
2023-03-24T01:37:51.048Z,12.15
2023-03-24T01:38:51.024Z,12.15
2023-03-24T01:39:51.018Z,12.19
2023-03-24T01:40:51.010Z,12.16
2023-03-24T01:41:51.023Z,12.16
2023-03-24T01:42:50.999Z,12.19
2023-03-24T01:43:50.976Z,12.23
2023-03-24T01:44:50.975Z,12.27
2023-03-24T01:45:51.058Z,12.13
2023-03-24T01:46:50.964Z,12.13
2023-03-24T01:47:51.015Z,12.20
2023-03-24T01:48:50.950Z,12.21
2023-03-24T01:49:50.925Z,12.23
2023-03-24T01:50:50.907Z,12.16
2023-03-24T01:51:50.919Z,12.15
2023-03-24T01:52:50.921Z,12.20
2023-03-24T01:53:50.890Z,12.23
2023-03-24T01:54:50.871Z,12.24
2023-03-24T01:55:50.873Z,12.31
2023-03-24T01:56:50.913Z,12.29
2023-03-24T01:57:51.873Z,12.30
2023-03-24T01:58:50.849Z,12.26
2023-03-24T01:59:50.827Z,12.29
2023-03-24T02:00:50.851Z,12.24
2023-03-24T02:01:50.822Z,12.26
2023-03-24T02:02:50.852Z,12.29
2023-03-24T02:03:50.799Z,12.29
2023-03-24T02:04:50.777Z,12.26
2023-03-24T02:05:50.780Z,12.29
2023-03-24T02:06:50.779Z,12.24
2023-03-24T02:07:50.776Z,12.16
2023-03-24T02:08:50.756Z,12.23
2023-03-24T02:09:50.727Z,12.16
2023-03-24T02:10:50.717Z,12.21
2023-03-24T02:11:50.724Z,12.21
2023-03-24T02:12:50.697Z,12.21
2023-03-24T02:13:50.692Z,12.20
2023-03-24T02:14:50.687Z,12.29
2023-03-24T02:15:50.720Z,12.13
2023-03-24T02:16:50.670Z,12.13
2023-03-24T02:17:50.790Z,12.20
2023-03-24T02:18:50.645Z,12.16
2023-03-24T02:19:50.629Z,12.12
2023-03-24T02:20:50.619Z,12.06
2023-03-24T02:21:50.626Z,12.15
2023-03-24T02:22:50.612Z,12.21
2023-03-24T02:23:50.601Z,12.19
2023-03-24T02:24:50.592Z,12.11
2023-03-24T02:25:50.575Z,12.20
2023-03-24T02:26:50.600Z,12.15
2023-03-24T02:27:50.583Z,12.09
2023-03-24T02:28:50.556Z,12.19
2023-03-24T02:29:50.554Z,12.19
2023-03-24T02:30:50.527Z,12.05
2023-03-24T02:31:50.611Z,12.06
2023-03-24T02:32:50.531Z,12.23
2023-03-24T02:33:50.501Z,12.08
2023-03-24T02:34:50.500Z,12.09
2023-03-24T02:35:50.516Z,12.12
2023-03-24T02:36:50.491Z,12.16
2023-03-24T02:37:50.472Z,12.16
2023-03-24T02:38:50.463Z,12.16
2023-03-24T02:39:50.467Z,12.19
2023-03-24T02:40:50.442Z,12.09
2023-03-24T02:41:50.441Z,12.08
2023-03-24T02:42:50.468Z,12.15
2023-03-24T02:43:50.419Z,12.19
2023-03-24T02:44:50.413Z,12.19
2023-03-24T02:45:50.400Z,12.16
2023-03-24T02:46:50.426Z,12.21
2023-03-24T02:47:50.407Z,12.08
2023-03-24T02:48:50.368Z,12.11
2023-03-24T02:49:50.346Z,12.04
2023-03-24T02:50:50.337Z,12.09
2023-03-24T02:51:50.363Z,12.08
2023-03-24T02:52:50.351Z,12.12
2023-03-24T02:53:50.359Z,12.13
2023-03-24T02:54:50.316Z,11.97
2023-03-24T02:55:50.298Z,12.02
2023-03-24T02:56:50.348Z,11.99
2023-03-24T02:57:50.301Z,12.06
2023-03-24T02:58:50.272Z,11.96
2023-03-24T02:59:50.272Z,12.01
2023-03-24T03:00:50.262Z,11.94
2023-03-24T03:01:50.324Z,12.06
2023-03-24T03:02:50.297Z,12.05
2023-03-24T03:03:50.253Z,12.04
2023-03-24T03:04:50.293Z,11.93
2023-03-24T03:05:50.201Z,11.97
2023-03-24T03:06:50.187Z,12.06
2023-03-24T03:07:50.201Z,11.93
2023-03-24T03:08:50.176Z,12.01
2023-03-24T03:09:50.161Z,12.01
2023-03-24T03:10:50.152Z,12.01
2023-03-24T03:11:50.140Z,12.06
2023-03-24T03:12:50.644Z,12.02
2023-03-24T03:13:50.135Z,11.96
2023-03-24T03:14:50.120Z,11.93
2023-03-24T03:15:50.136Z,11.85
2023-03-24T03:16:50.124Z,11.94
2023-03-24T03:17:50.146Z,11.83
2023-03-24T03:18:50.112Z,11.89
2023-03-24T03:19:50.080Z,11.89
2023-03-24T03:20:50.063Z,11.86
2023-03-24T03:21:50.047Z,11.80
2023-03-24T03:22:50.053Z,11.89
2023-03-24T03:23:50.024Z,11.83
2023-03-24T03:24:50.030Z,11.93
2023-03-24T03:25:50.011Z,11.96
2023-03-24T03:26:49.997Z,11.89
2023-03-24T03:27:50.005Z,11.82
2023-03-24T03:28:50.070Z,11.94
2023-03-24T03:29:49.970Z,11.86
2023-03-24T03:30:49.984Z,11.96
2023-03-24T03:31:49.943Z,11.87
2023-03-24T03:32:50.009Z,11.93
2023-03-24T03:33:49.937Z,11.94
2023-03-24T03:34:49.934Z,11.97
2023-03-24T03:35:49.932Z,11.99
2023-03-24T03:36:49.899Z,11.93
2023-03-24T03:37:49.902Z,11.89
2023-03-24T03:38:49.888Z,11.99
2023-03-24T03:39:49.887Z,11.87
2023-03-24T03:40:49.873Z,11.99
2023-03-24T03:41:49.855Z,11.97
2023-03-24T03:42:49.871Z,11.87
2023-03-24T03:43:49.847Z,11.99
2023-03-24T03:44:49.827Z,12.05
2023-03-24T03:45:49.846Z,11.93
2023-03-24T03:46:49.808Z,11.97
2023-03-24T03:47:49.864Z,11.93
2023-03-24T03:48:49.792Z,12.04
2023-03-24T03:49:49.787Z,11.97
2023-03-24T03:50:53.318Z,12.02
2023-03-24T03:51:50.763Z,11.96
2023-03-24T03:52:49.767Z,12.01
2023-03-24T03:53:49.749Z,12.04
2023-03-24T03:54:49.732Z,12.06
2023-03-24T03:55:49.720Z,12.04
2023-03-24T03:56:49.736Z,11.93
2023-03-24T03:57:49.725Z,11.96
2023-03-24T03:58:49.688Z,11.93
2023-03-24T03:59:49.674Z,12.04
2023-03-24T04:00:49.667Z,12.06
2023-03-24T04:01:49.698Z,12.04
2023-03-24T04:02:49.704Z,12.04
2023-03-24T04:03:49.700Z,12.06
2023-03-24T04:04:59.519Z,12.04
2023-03-24T04:05:51.622Z,12.09
2023-03-24T04:06:49.613Z,12.06
2023-03-24T04:07:49.614Z,12.04
2023-03-24T04:08:49.620Z,11.99
2023-03-24T04:09:49.587Z,11.93
2023-03-24T04:10:49.579Z,11.86
2023-03-24T04:11:49.562Z,11.75
2023-03-24T04:12:49.581Z,11.72
2023-03-24T04:13:49.562Z,11.75
2023-03-24T04:14:49.542Z,11.71
2023-03-24T04:15:49.593Z,11.71
2023-03-24T04:16:49.514Z,11.67
2023-03-24T04:17:49.542Z,11.67
2023-03-24T04:18:49.506Z,11.67
2023-03-24T04:19:49.476Z,11.70
2023-03-24T04:20:49.474Z,11.54
2023-03-24T04:21:49.473Z,11.72
2023-03-24T04:22:49.452Z,11.64
2023-03-24T04:23:49.455Z,11.71
2023-03-24T04:24:49.438Z,11.65
2023-03-24T04:25:49.434Z,11.77
2023-03-24T04:26:49.418Z,11.72
2023-03-24T04:27:49.416Z,11.59
2023-03-24T04:28:49.412Z,11.64
2023-03-24T04:29:49.380Z,11.71
2023-03-24T04:30:49.397Z,11.68
2023-03-24T04:31:49.493Z,11.65
2023-03-24T04:32:49.406Z,11.80
2023-03-24T04:33:49.375Z,11.78
2023-03-24T04:34:49.355Z,11.80
2023-03-24T04:35:49.397Z,11.75
2023-03-24T04:36:49.355Z,11.75
2023-03-24T04:37:49.337Z,11.70
2023-03-24T04:38:49.318Z,11.67
2023-03-24T04:39:49.284Z,11.78
2023-03-24T04:40:50.299Z,11.78
2023-03-24T04:41:49.285Z,11.78
2023-03-24T04:42:49.283Z,11.82
2023-03-24T04:43:49.261Z,11.75
2023-03-24T04:44:49.246Z,11.78
2023-03-24T04:45:49.268Z,11.77
2023-03-24T04:46:50.249Z,11.83
2023-03-24T04:47:49.264Z,11.94
2023-03-24T04:48:49.229Z,11.93
2023-03-24T04:49:49.199Z,12.01
2023-03-24T04:50:49.191Z,11.97
2023-03-24T04:51:49.189Z,12.09
2023-03-24T04:52:49.172Z,12.15
2023-03-24T04:53:49.187Z,12.27
2023-03-24T04:54:49.157Z,12.37
2023-03-24T04:55:49.160Z,12.24
2023-03-24T04:56:49.176Z,12.15
2023-03-24T04:57:49.114Z,12.20
2023-03-24T04:58:49.125Z,12.19
2023-03-24T04:59:49.141Z,12.20
2023-03-24T05:00:49.189Z,12.24
2023-03-24T05:01:49.085Z,12.26
2023-03-24T05:02:49.087Z,12.19
2023-03-24T05:03:49.118Z,12.31
2023-03-24T05:04:49.081Z,12.09
2023-03-24T05:05:49.050Z,12.26
2023-03-24T05:06:49.040Z,12.13
2023-03-24T05:07:49.042Z,12.26
2023-03-24T05:08:49.004Z,12.27
2023-03-24T05:09:49.010Z,12.11
2023-03-24T05:10:49.005Z,12.23
2023-03-24T05:11:48.986Z,12.11
2023-03-24T05:12:48.969Z,12.16
2023-03-24T05:13:48.959Z,12.15
2023-03-24T05:14:48.986Z,12.13
2023-03-24T05:15:48.976Z,12.20
2023-03-24T05:16:49.023Z,12.12
2023-03-24T05:17:48.979Z,12.05
2023-03-24T05:18:48.930Z,12.15
2023-03-24T05:19:48.929Z,12.12
2023-03-24T05:20:48.912Z,12.26
2023-03-24T05:21:48.938Z,12.09
2023-03-24T05:22:48.884Z,12.16
2023-03-24T05:23:48.852Z,12.13
2023-03-24T05:24:48.867Z,12.11
2023-03-24T05:25:48.843Z,12.11
2023-03-24T05:26:48.829Z,12.08
2023-03-24T05:27:48.819Z,12.08
2023-03-24T05:28:48.808Z,12.09
2023-03-24T05:29:48.808Z,12.09
2023-03-24T05:30:48.810Z,12.15
2023-03-24T05:31:48.773Z,12.16
2023-03-24T05:32:48.826Z,12.13
2023-03-24T05:33:48.752Z,12.16
2023-03-24T05:34:48.761Z,12.06
2023-03-24T05:35:48.917Z,12.16
2023-03-24T05:36:48.729Z,12.30
2023-03-24T05:37:48.723Z,12.24
2023-03-24T05:38:48.710Z,12.24
2023-03-24T05:39:48.707Z,12.26
2023-03-24T05:40:49.686Z,12.21
2023-03-24T05:41:48.682Z,12.26
2023-03-24T05:42:48.676Z,12.26
2023-03-24T05:43:48.658Z,12.16
2023-03-24T05:44:48.654Z,12.27
2023-03-24T05:45:48.916Z,12.24
2023-03-24T05:46:48.651Z,12.30
2023-03-24T05:47:48.667Z,12.29
2023-03-24T05:48:48.616Z,12.29
2023-03-24T05:49:48.615Z,12.27
2023-03-24T05:50:48.596Z,12.26
2023-03-24T05:51:48.575Z,12.31
2023-03-24T05:52:48.573Z,12.34
2023-03-24T05:53:49.183Z,12.39
2023-03-24T05:54:56.142Z,12.45
2023-03-24T05:55:48.624Z,12.46
2023-03-24T05:56:51.184Z,12.51
2023-03-24T05:57:48.570Z,12.34
2023-03-24T05:58:48.554Z,12.54
2023-03-24T05:59:48.563Z,12.49
2023-03-24T06:00:48.516Z,12.42
2023-03-24T06:01:48.558Z,12.41
2023-03-24T06:02:48.614Z,12.31
2023-03-24T06:03:48.634Z,12.39
2023-03-24T06:04:48.516Z,12.41
2023-03-24T06:05:48.500Z,12.45
2023-03-24T06:06:48.499Z,12.37
2023-03-24T06:07:48.474Z,12.39
2023-03-24T06:08:48.464Z,12.39
2023-03-24T06:09:48.467Z,12.41
2023-03-24T06:10:48.487Z,12.31
2023-03-24T06:11:48.412Z,12.38
2023-03-24T06:12:48.404Z,12.37
2023-03-24T06:13:48.402Z,12.29
2023-03-24T06:14:48.428Z,12.41
2023-03-24T06:15:48.786Z,12.44
2023-03-24T06:16:48.364Z,12.34
2023-03-24T06:17:48.397Z,12.33
2023-03-24T06:18:48.365Z,12.49
2023-03-24T06:19:48.395Z,12.56
2023-03-24T06:20:48.353Z,12.62
2023-03-24T06:21:48.357Z,12.54
2023-03-24T06:22:48.312Z,12.49
2023-03-24T06:23:48.328Z,12.56
2023-03-24T06:24:48.295Z,12.56
2023-03-24T06:25:48.284Z,12.54
2023-03-24T06:26:48.276Z,12.48
2023-03-24T06:27:48.299Z,12.59
2023-03-24T06:28:48.263Z,12.67
2023-03-24T06:29:48.268Z,12.49
2023-03-24T06:30:48.316Z,12.64
2023-03-24T06:31:48.221Z,12.62
2023-03-24T06:32:48.237Z,12.63
2023-03-24T06:33:48.210Z,12.56
2023-03-24T06:34:48.178Z,12.67
2023-03-24T06:35:48.296Z,12.62
2023-03-24T06:36:48.173Z,12.60
2023-03-24T06:37:49.123Z,12.60
2023-03-24T06:38:48.154Z,12.62
2023-03-24T06:39:50.087Z,12.66
2023-03-24T06:40:48.420Z,12.52
2023-03-24T06:41:48.145Z,12.63
2023-03-24T06:42:48.773Z,12.70
2023-03-24T06:43:48.144Z,12.67
2023-03-24T06:44:48.093Z,12.60
2023-03-24T06:45:48.373Z,12.64
2023-03-24T06:46:48.108Z,12.60
2023-03-24T06:47:48.078Z,12.60
2023-03-24T06:48:48.060Z,12.78
2023-03-24T06:49:48.062Z,12.74
2023-03-24T06:50:48.045Z,12.64
2023-03-24T06:51:48.032Z,12.67
2023-03-24T06:52:48.049Z,12.79
2023-03-24T06:53:48.009Z,12.74
2023-03-24T06:54:47.990Z,12.77
2023-03-24T06:55:47.986Z,12.74
2023-03-24T06:56:47.996Z,12.88
2023-03-24T06:57:47.945Z,12.97
2023-03-24T06:58:48.948Z,12.99
2023-03-24T06:59:47.943Z,13.03
2023-03-24T07:00:48.062Z,12.99
2023-03-24T07:01:47.985Z,12.99
2023-03-24T07:02:48.003Z,13.22
2023-03-24T07:03:47.980Z,13.27
2023-03-24T07:04:47.929Z,13.22
2023-03-24T07:05:47.910Z,13.21
2023-03-24T07:07:03.582Z,13.27
2023-03-24T07:08:48.864Z,13.51
2023-03-24T07:09:47.836Z,13.58
2023-03-24T07:10:47.878Z,13.74
2023-03-24T07:11:47.858Z,13.76
2023-03-24T07:12:47.856Z,13.91
2023-03-24T07:13:47.806Z,14.02
2023-03-24T07:14:47.781Z,14.12
2023-03-24T07:15:47.821Z,14.07
2023-03-24T07:16:47.783Z,14.17
2023-03-24T07:17:47.832Z,14.17
2023-03-24T07:18:47.799Z,14.25
2023-03-24T07:19:47.775Z,14.31
2023-03-24T07:20:47.761Z,14.39
2023-03-24T07:21:47.751Z,14.37
2023-03-24T07:22:47.728Z,14.43
2023-03-24T07:23:47.702Z,14.47
2023-03-24T07:24:47.702Z,14.49
2023-03-24T07:25:47.700Z,14.34
2023-03-24T07:26:47.660Z,14.39
2023-03-24T07:27:47.653Z,14.24
2023-03-24T07:28:47.633Z,14.19
2023-03-24T07:29:47.622Z,14.16
2023-03-24T07:30:47.630Z,14.27
2023-03-24T07:31:47.665Z,14.21
2023-03-24T07:32:47.599Z,14.35
2023-03-24T07:33:47.583Z,14.39
2023-03-24T07:34:47.578Z,14.43
2023-03-24T07:35:47.716Z,14.32
2023-03-24T07:36:47.555Z,14.32
2023-03-24T07:37:47.594Z,14.44
2023-03-24T07:38:47.550Z,14.56
2023-03-24T07:39:47.550Z,14.53
2023-03-24T07:40:47.787Z,14.68
2023-03-24T07:41:47.550Z,14.86
2023-03-24T07:42:47.499Z,15.05
2023-03-24T07:43:47.530Z,15.19
2023-03-24T07:44:47.489Z,15.31
2023-03-24T07:45:47.956Z,15.31
2023-03-24T07:46:47.480Z,15.15
2023-03-24T07:47:47.516Z,15.21
2023-03-24T07:48:47.458Z,15.17
2023-03-24T07:49:47.457Z,15.02
2023-03-24T07:50:47.510Z,15.08
2023-03-24T07:51:47.434Z,15.09
2023-03-24T07:52:47.444Z,15.26
2023-03-24T07:53:47.444Z,15.42
2023-03-24T07:54:47.475Z,15.43
2023-03-24T07:55:47.433Z,15.42
2023-03-24T07:56:47.399Z,15.36
2023-03-24T07:57:47.361Z,15.43
2023-03-24T07:58:47.392Z,15.41
2023-03-24T07:59:47.325Z,15.67
2023-03-24T08:00:47.501Z,15.70
2023-03-24T08:01:48.653Z,15.70
2023-03-24T08:02:48.437Z,15.57
2023-03-24T08:03:47.473Z,15.42
2023-03-24T08:04:47.312Z,15.36
2023-03-24T08:05:47.552Z,15.21
2023-03-24T08:06:47.325Z,15.12
2023-03-24T08:07:47.284Z,14.99
2023-03-24T08:08:47.253Z,15.08
2023-03-24T08:09:47.225Z,14.95
2023-03-24T08:10:47.473Z,15.01
2023-03-24T08:11:47.217Z,14.91
2023-03-24T08:12:47.194Z,14.74
2023-03-24T08:13:47.198Z,14.75
2023-03-24T08:14:47.202Z,14.83
2023-03-24T08:15:47.329Z,14.81
2023-03-24T08:16:47.207Z,14.88
2023-03-24T08:17:47.169Z,14.98
2023-03-24T08:18:47.946Z,14.93
2023-03-24T08:19:59.060Z,14.80
2023-03-24T08:20:49.124Z,14.90
2023-03-24T08:21:47.119Z,14.84
2023-03-24T08:22:47.333Z,14.74
2023-03-24T08:23:47.085Z,14.75
2023-03-24T08:24:47.084Z,14.72
2023-03-24T08:25:47.279Z,14.65
2023-03-24T08:26:47.078Z,14.64
2023-03-24T08:27:47.055Z,14.67
2023-03-24T08:28:47.108Z,14.87
2023-03-24T08:29:47.096Z,14.94
2023-03-24T08:30:47.383Z,14.98
2023-03-24T08:31:47.133Z,14.94
2023-03-24T08:32:47.145Z,15.02
2023-03-24T08:33:47.063Z,15.06
2023-03-24T08:34:47.031Z,15.12
2023-03-24T08:35:47.656Z,15.12
2023-03-24T08:36:46.966Z,15.03
2023-03-24T08:37:47.176Z,15.09
2023-03-24T08:38:46.939Z,14.93
2023-03-24T08:39:46.966Z,14.94
2023-03-24T08:40:46.952Z,14.94
2023-03-24T08:41:46.932Z,14.99
2023-03-24T08:42:46.948Z,15.01
2023-03-24T08:43:46.933Z,15.02
2023-03-24T08:44:46.900Z,14.94
2023-03-24T08:45:47.195Z,14.88
2023-03-24T08:46:47.015Z,14.99
2023-03-24T08:47:46.958Z,14.94
2023-03-24T08:48:46.882Z,14.88
2023-03-24T08:49:46.845Z,14.52
2023-03-24T08:50:46.845Z,14.07
2023-03-24T08:51:46.833Z,13.92
2023-03-24T08:52:46.830Z,13.83
2023-03-24T08:53:46.840Z,13.69
2023-03-24T08:54:46.818Z,13.51
2023-03-24T08:55:47.098Z,13.30
2023-03-24T08:56:46.917Z,13.22
2023-03-24T08:57:46.797Z,13.22
2023-03-24T08:58:46.759Z,13.04
2023-03-24T08:59:47.335Z,12.95
2023-03-24T09:00:46.766Z,12.92
2023-03-24T09:01:46.776Z,12.78
2023-03-24T09:02:46.808Z,12.77
2023-03-24T09:03:46.706Z,12.69
2023-03-24T09:04:46.659Z,12.70
2023-03-24T09:05:46.650Z,12.77
2023-03-24T09:06:46.640Z,12.70
2023-03-24T09:07:46.650Z,12.71
2023-03-24T09:08:46.624Z,12.62
2023-03-24T09:09:46.604Z,12.75
2023-03-24T09:10:46.606Z,12.49
2023-03-24T09:11:46.575Z,12.69
2023-03-24T09:12:46.573Z,12.46
2023-03-24T09:13:46.579Z,12.60
2023-03-24T09:14:46.604Z,12.57
2023-03-24T09:15:46.872Z,12.54
2023-03-24T09:16:46.540Z,12.63
2023-03-24T09:17:46.666Z,12.60
2023-03-24T09:18:46.526Z,12.63
2023-03-24T09:19:46.494Z,12.70
2023-03-24T09:20:46.798Z,12.67
2023-03-24T09:21:46.505Z,12.66
2023-03-24T09:22:46.535Z,12.64
2023-03-24T09:23:46.491Z,12.67
2023-03-24T09:24:46.472Z,12.52
2023-03-24T09:25:46.622Z,12.46
2023-03-24T09:26:46.441Z,12.31
2023-03-24T09:27:46.483Z,12.30
2023-03-24T09:28:46.449Z,12.27
2023-03-24T09:29:46.429Z,12.37
2023-03-24T09:30:46.489Z,12.29
2023-03-24T09:31:46.449Z,12.33
2023-03-24T09:32:46.410Z,12.33
2023-03-24T09:33:46.363Z,12.26
2023-03-24T09:34:46.371Z,12.26
2023-03-24T09:35:46.379Z,12.33
2023-03-24T09:36:46.362Z,12.29
2023-03-24T09:37:46.371Z,12.09
2023-03-24T09:38:46.329Z,12.19
2023-03-24T09:39:46.330Z,12.21
2023-03-24T09:40:46.420Z,12.05
2023-03-24T09:41:46.328Z,11.74
2023-03-24T09:42:46.784Z,11.56
2023-03-24T09:43:47.279Z,11.36
2023-03-24T09:44:46.275Z,11.16
2023-03-24T09:45:46.521Z,11.02
2023-03-24T09:46:46.322Z,10.99
2023-03-24T09:47:46.299Z,10.99
2023-03-24T09:48:46.217Z,10.95
2023-03-24T09:49:46.217Z,10.89
2023-03-24T09:50:46.290Z,10.94
2023-03-24T09:51:46.241Z,10.84
2023-03-24T09:52:46.262Z,10.91
2023-03-24T09:53:46.228Z,10.94
2023-03-24T09:54:46.257Z,10.92
2023-03-24T09:55:46.326Z,10.83
2023-03-24T09:56:46.259Z,11.06
2023-03-24T09:57:46.192Z,11.11
2023-03-24T09:58:46.176Z,11.17
2023-03-24T09:59:46.306Z,11.27
2023-03-24T10:00:46.227Z,11.32
2023-03-24T10:01:46.117Z,11.39
2023-03-24T10:02:46.295Z,11.47
2023-03-24T10:03:46.264Z,11.49
2023-03-24T10:04:46.157Z,11.61
2023-03-24T10:05:46.136Z,11.56
2023-03-24T10:06:46.175Z,11.54
2023-03-24T10:07:46.088Z,11.68
2023-03-24T10:08:46.112Z,11.65
2023-03-24T10:09:46.058Z,11.47
2023-03-24T10:10:46.104Z,11.38
2023-03-24T10:11:47.109Z,11.43
2023-03-24T10:12:46.023Z,11.49
2023-03-24T10:13:46.017Z,11.65
2023-03-24T10:14:46.002Z,11.72
2023-03-24T10:15:46.036Z,11.83
2023-03-24T10:16:46.010Z,11.87
2023-03-24T10:17:46.079Z,11.86
2023-03-24T10:18:45.990Z,11.87
2023-03-24T10:19:45.971Z,11.83
2023-03-24T10:20:45.940Z,11.89
2023-03-24T10:21:45.941Z,11.85
2023-03-24T10:22:45.929Z,11.70
2023-03-24T10:23:45.966Z,11.64
2023-03-24T10:24:45.907Z,11.74
2023-03-24T10:25:46.128Z,11.64
2023-03-24T10:26:45.922Z,11.65
2023-03-24T10:27:45.867Z,11.57
2023-03-24T10:28:45.882Z,11.59
2023-03-24T10:29:45.894Z,11.68
2023-03-24T10:30:48.158Z,11.71
2023-03-24T10:31:46.001Z,11.65
2023-03-24T10:32:45.851Z,11.78
2023-03-24T10:33:45.853Z,11.74
2023-03-24T10:34:45.822Z,11.77
2023-03-24T10:35:45.886Z,11.86
2023-03-24T10:36:45.800Z,11.86
2023-03-24T10:37:46.323Z,11.82
2023-03-24T10:38:45.810Z,11.97
2023-03-24T10:39:45.779Z,11.99
2023-03-24T10:40:45.770Z,11.94
2023-03-24T10:41:45.797Z,11.99
2023-03-24T10:42:45.762Z,12.01
2023-03-24T10:43:45.772Z,12.09
2023-03-24T10:44:45.763Z,11.96
2023-03-24T10:45:45.938Z,11.89
2023-03-24T10:46:45.755Z,11.87
2023-03-24T10:47:45.754Z,11.85
2023-03-24T10:48:45.766Z,11.74
2023-03-24T10:49:45.693Z,11.54
2023-03-24T10:50:45.681Z,11.56
2023-03-24T10:51:45.625Z,11.54
2023-03-24T10:52:45.634Z,11.49
2023-03-24T10:53:45.645Z,11.41
2023-03-24T10:54:45.633Z,11.38
2023-03-24T10:55:45.759Z,11.54
2023-03-24T10:56:45.646Z,11.44
2023-03-24T10:57:45.590Z,11.47
2023-03-24T10:58:45.585Z,11.52
2023-03-24T10:59:45.533Z,11.49
2023-03-24T11:00:46.539Z,11.43
2023-03-24T11:01:45.700Z,11.39
2023-03-24T11:02:45.626Z,11.34
2023-03-24T11:03:45.576Z,11.29
2023-03-24T11:04:45.538Z,11.29
2023-03-24T11:05:45.544Z,11.16
2023-03-24T11:06:45.499Z,11.16
2023-03-24T11:07:45.507Z,11.10
2023-03-24T11:08:45.472Z,11.03
2023-03-24T11:09:45.573Z,11.17
2023-03-24T11:10:45.456Z,11.29
2023-03-24T11:11:45.418Z,11.06
2023-03-24T11:12:45.471Z,11.25
2023-03-24T11:13:45.417Z,11.24
2023-03-24T11:14:45.442Z,11.28
2023-03-24T11:15:45.430Z,11.24
2023-03-24T11:16:45.410Z,11.32
2023-03-24T11:17:45.419Z,11.27
2023-03-24T11:18:45.345Z,11.38
2023-03-24T11:19:45.347Z,11.53
2023-03-24T11:20:45.328Z,11.71
2023-03-24T11:21:45.323Z,11.71
2023-03-24T11:22:45.309Z,11.74
2023-03-24T11:23:45.291Z,11.96
2023-03-24T11:24:45.290Z,12.15
2023-03-24T11:25:45.267Z,12.29
2023-03-24T11:26:45.251Z,12.16
2023-03-24T11:27:45.265Z,12.04
2023-03-24T11:28:45.264Z,12.09
2023-03-24T11:29:45.270Z,12.27
2023-03-24T11:30:45.897Z,12.38
2023-03-24T11:31:46.249Z,12.54
2023-03-24T11:32:45.256Z,12.51
2023-03-24T11:33:45.215Z,12.56
2023-03-24T11:34:45.196Z,12.60
2023-03-24T11:35:50.353Z,12.56
2023-03-24T11:36:47.702Z,12.66
2023-03-24T11:37:46.157Z,12.67
2023-03-24T11:38:45.146Z,12.63
2023-03-24T11:39:45.140Z,12.64
2023-03-24T11:40:45.132Z,12.56
2023-03-24T11:41:45.113Z,12.59
2023-03-24T11:42:45.973Z,12.54
2023-03-24T11:43:46.095Z,12.51
2023-03-24T11:44:45.108Z,12.45
2023-03-24T11:45:45.078Z,12.41
2023-03-24T11:46:45.172Z,12.60
2023-03-24T11:47:45.197Z,12.56
2023-03-24T11:48:45.143Z,12.54
2023-03-24T11:49:45.795Z,12.63
2023-03-24T11:50:45.157Z,12.59
2023-03-24T11:51:45.072Z,12.62
2023-03-24T11:52:45.084Z,12.64
2023-03-24T11:53:46.474Z,12.67
2023-03-24T11:54:45.044Z,12.66
2023-03-24T11:55:45.039Z,12.78
2023-03-24T11:56:45.059Z,13.00
2023-03-24T11:57:45.011Z,13.03
2023-03-24T11:58:44.997Z,13.25
2023-03-24T11:59:44.992Z,13.18
2023-03-24T12:00:45.021Z,13.17
2023-03-24T12:01:45.002Z,13.14
2023-03-24T12:02:45.066Z,13.20
2023-03-24T12:03:45.009Z,12.96
2023-03-24T12:04:44.918Z,12.74
2023-03-24T12:05:45.007Z,12.74
2023-03-24T12:06:44.945Z,12.75
2023-03-24T12:07:44.902Z,12.70
2023-03-24T12:08:44.905Z,12.78
2023-03-24T12:09:44.924Z,12.92
2023-03-24T12:10:44.911Z,12.79
2023-03-24T12:11:44.869Z,12.67
2023-03-24T12:12:44.851Z,12.67
2023-03-24T12:13:44.859Z,12.54
2023-03-24T12:14:44.842Z,12.56
2023-03-24T12:15:44.883Z,12.45
2023-03-24T12:16:44.965Z,12.54
2023-03-24T12:17:44.848Z,12.64
2023-03-24T12:18:44.821Z,12.69
2023-03-24T12:19:44.814Z,12.81
2023-03-24T12:20:44.838Z,13.11
2023-03-24T12:21:44.786Z,13.32
2023-03-24T12:22:45.027Z,13.52
2023-03-24T12:23:44.792Z,13.54
2023-03-24T12:24:44.748Z,13.59
2023-03-24T12:25:44.774Z,13.41
2023-03-24T12:26:44.770Z,13.69
2023-03-24T12:27:44.733Z,13.58
2023-03-24T12:28:44.704Z,13.65
2023-03-24T12:29:44.725Z,13.44
2023-03-24T12:30:44.704Z,13.49
2023-03-24T12:31:44.737Z,13.37
2023-03-24T12:32:44.732Z,13.44
2023-03-24T12:33:44.646Z,13.43
2023-03-24T12:34:44.665Z,13.24
2023-03-24T12:35:44.700Z,13.33
2023-03-24T12:36:44.648Z,13.38
2023-03-24T12:37:44.642Z,13.52
2023-03-24T12:38:44.615Z,13.55
2023-03-24T12:39:44.616Z,13.81
2023-03-24T12:40:44.604Z,14.14
2023-03-24T12:41:44.557Z,14.71
2023-03-24T12:42:44.568Z,15.67
2023-03-24T12:43:44.548Z,16.63
2023-03-24T12:44:44.575Z,17.43
2023-03-24T12:45:44.612Z,17.55
2023-03-24T12:46:48.097Z,17.69
2023-03-24T12:47:45.557Z,17.69
2023-03-24T12:48:44.540Z,17.23
2023-03-24T12:49:44.493Z,17.20
2023-03-24T12:50:44.533Z,17.76
2023-03-24T12:51:44.497Z,18.03
2023-03-24T12:52:47.223Z,18.12
2023-03-24T12:53:44.460Z,18.15
2023-03-24T12:54:44.486Z,18.00